Terminal Aerodrome Forecast
Issued by NWS

Current Version | Previous Version | Text Only | Print | Product List | Glossary On
Versions: 1 2 3 4 5 6 7 8 9 10 11 12 13 14 15 16 17
000
FTUS42 KJAX 271740
TAFVQQ
TAF
KVQQ 271740Z 2718/2818 28005KT P6SM SCT050
     FM272000 17008KT P6SM SCT050
     FM280100 VRB03KT P6SM FEW030 SCT250
     FM281400 26004KT P6SM FEW250=

USA.gov is the U.S. government's official web portal to all federal, state and local government web resources and services.